sensor_id;sensor_type;location;lat;lon;timestamp;pressure;altitude;pressure_sealevel;temperature;humidity
64230;BME280;50547;49.498;0.092;2023-04-23T00:00:40;1003.33;;;12.94;82.47
64230;BME280;50547;49.498;0.092;2023-04-23T00:03:12;1003.29;;;12.96;82.27
64230;BME280;50547;49.498;0.092;2023-04-23T00:05:43;1003.25;;;12.90;82.49
64230;BME280;50547;49.498;0.092;2023-04-23T00:08:14;1003.23;;;12.87;82.55
64230;BME280;50547;49.498;0.092;2023-04-23T00:10:43;1003.23;;;12.85;82.59
64230;BME280;50547;49.498;0.092;2023-04-23T00:13:12;1003.17;;;12.81;82.78
64230;BME280;50547;49.498;0.092;2023-04-23T00:15:38;1003.17;;;12.73;83.13
64230;BME280;50547;49.498;0.092;2023-04-23T00:18:07;1003.21;;;12.71;83.22
64230;BME280;50547;49.498;0.092;2023-04-23T00:20:37;1003.19;;;12.73;83.08
64230;BME280;50547;49.498;0.092;2023-04-23T00:23:06;1003.27;;;12.77;83.04
64230;BME280;50547;49.498;0.092;2023-04-23T00:25:35;1003.17;;;12.68;83.32
64230;BME280;50547;49.498;0.092;2023-04-23T00:28:04;1003.15;;;12.73;83.05
64230;BME280;50547;49.498;0.092;2023-04-23T00:30:30;1003.10;;;12.60;83.65
64230;BME280;50547;49.498;0.092;2023-04-23T00:32:59;1003.19;;;12.65;83.29
64230;BME280;50547;49.498;0.092;2023-04-23T00:35:28;1003.12;;;12.67;83.16
64230;BME280;50547;49.498;0.092;2023-04-23T00:37:57;1003.21;;;12.68;83.14
64230;BME280;50547;49.498;0.092;2023-04-23T00:40:26;1003.17;;;12.61;83.56
64230;BME280;50547;49.498;0.092;2023-04-23T00:42:56;1003.14;;;12.61;83.34
64230;BME280;50547;49.498;0.092;2023-04-23T00:45:25;1003.06;;;12.60;83.48
64230;BME280;50547;49.498;0.092;2023-04-23T00:47:55;1002.94;;;12.56;83.78
64230;BME280;50547;49.498;0.092;2023-04-23T00:50:24;1003.04;;;12.56;83.69
64230;BME280;50547;49.498;0.092;2023-04-23T00:52:50;1003.08;;;12.55;83.67
64230;BME280;50547;49.498;0.092;2023-04-23T00:55:19;1003.02;;;12.64;83.08
64230;BME280;50547;49.498;0.092;2023-04-23T00:57:49;1002.83;;;12.60;83.30
64230;BME280;50547;49.498;0.092;2023-04-23T01:00:19;1002.92;;;12.59;83.42
64230;BME280;50547;49.498;0.092;2023-04-23T01:02:48;1002.92;;;12.59;83.34
64230;BME280;50547;49.498;0.092;2023-04-23T01:05:18;1002.76;;;12.56;83.43
64230;BME280;50547;49.498;0.092;2023-04-23T01:07:48;1002.81;;;12.59;83.20
64230;BME280;50547;49.498;0.092;2023-04-23T01:10:17;1002.68;;;12.53;83.43
64230;BME280;50547;49.498;0.092;2023-04-23T01:12:47;1002.70;;;12.53;83.39
64230;BME280;50547;49.498;0.092;2023-04-23T01:15:16;1002.72;;;12.52;83.46
64230;BME280;50547;49.498;0.092;2023-04-23T01:17:45;1002.66;;;12.64;82.87
64230;BME280;50547;49.498;0.092;2023-04-23T01:20:15;1002.60;;;12.62;83.02
64230;BME280;50547;49.498;0.092;2023-04-23T01:22:44;1002.68;;;12.57;83.25
64230;BME280;50547;49.498;0.092;2023-04-23T01:25:13;1002.54;;;12.57;83.28
64230;BME280;50547;49.498;0.092;2023-04-23T01:27:42;1002.50;;;12.63;83.05
64230;BME280;50547;49.498;0.092;2023-04-23T01:30:12;1002.68;;;12.61;83.09
64230;BME280;50547;49.498;0.092;2023-04-23T01:32:42;1002.62;;;12.55;83.45
64230;BME280;50547;49.498;0.092;2023-04-23T01:35:11;1002.54;;;12.60;83.23
64230;BME280;50547;49.498;0.092;2023-04-23T01:37:41;1002.52;;;12.57;83.13
64230;BME280;50547;49.498;0.092;2023-04-23T01:40:11;1002.46;;;12.63;82.76
64230;BME280;50547;49.498;0.092;2023-04-23T01:42:40;1002.34;;;12.68;82.55
64230;BME280;50547;49.498;0.092;2023-04-23T01:45:10;1002.34;;;12.65;82.77
64230;BME280;50547;49.498;0.092;2023-04-23T01:47:39;1002.34;;;12.62;82.93
64230;BME280;50547;49.498;0.092;2023-04-23T01:50:08;1002.36;;;12.58;83.19
64230;BME280;50547;49.498;0.092;2023-04-23T01:52:38;1002.34;;;12.63;83.00
64230;BME280;50547;49.498;0.092;2023-04-23T01:55:07;1002.36;;;12.71;82.59
64230;BME280;50547;49.498;0.092;2023-04-23T01:57:36;1002.40;;;12.72;82.54
64230;BME280;50547;49.498;0.092;2023-04-23T02:00:08;1002.36;;;12.64;83.24
64230;BME280;50547;49.498;0.092;2023-04-23T02:02:38;1002.34;;;12.68;82.89
64230;BME280;50547;49.498;0.092;2023-04-23T02:05:10;1002.38;;;12.56;83.75
64230;BME280;50547;49.498;0.092;2023-04-23T02:07:40;1002.29;;;12.49;84.07
64230;BME280;50547;49.498;0.092;2023-04-23T02:10:10;1002.34;;;12.56;83.78
64230;BME280;50547;49.498;0.092;2023-04-23T02:12:39;1002.30;;;12.62;83.24
64230;BME280;50547;49.498;0.092;2023-04-23T02:15:09;1002.21;;;12.59;83.54
64230;BME280;50547;49.498;0.092;2023-04-23T02:17:39;1002.25;;;12.50;83.99
64230;BME280;50547;49.498;0.092;2023-04-23T02:20:09;1002.23;;;12.56;83.67
64230;BME280;50547;49.498;0.092;2023-04-23T02:22:40;1002.23;;;12.65;83.08
64230;BME280;50547;49.498;0.092;2023-04-23T02:25:09;1002.23;;;12.52;83.96
64230;BME280;50547;49.498;0.092;2023-04-23T02:27:38;1002.09;;;12.49;84.08
64230;BME280;50547;49.498;0.092;2023-04-23T02:30:08;1002.17;;;12.50;84.01
64230;BME280;50547;49.498;0.092;2023-04-23T02:32:37;1002.13;;;12.45;84.15
64230;BME280;50547;49.498;0.092;2023-04-23T02:35:07;1002.15;;;12.53;83.68
64230;BME280;50547;49.498;0.092;2023-04-23T02:37:36;1002.15;;;12.53;83.59
64230;BME280;50547;49.498;0.092;2023-04-23T02:40:07;1002.11;;;12.54;83.46
64230;BME280;50547;49.498;0.092;2023-04-23T02:42:36;1002.01;;;12.46;83.91
64230;BME280;50547;49.498;0.092;2023-04-23T02:45:06;1001.99;;;12.50;83.78
64230;BME280;50547;49.498;0.092;2023-04-23T02:47:35;1001.97;;;12.57;83.26
64230;BME280;50547;49.498;0.092;2023-04-23T02:50:05;1001.93;;;12.64;82.92
64230;BME280;50547;49.498;0.092;2023-04-23T02:52:34;1001.95;;;12.64;82.89
64230;BME280;50547;49.498;0.092;2023-04-23T02:55:04;1001.95;;;12.61;83.15
64230;BME280;50547;49.498;0.092;2023-04-23T02:57:34;1001.91;;;12.63;83.01
64230;BME280;50547;49.498;0.092;2023-04-23T03:00:04;1001.93;;;12.68;82.84
64230;BME280;50547;49.498;0.092;2023-04-23T03:02:33;1001.85;;;12.63;83.05
64230;BME280;50547;49.498;0.092;2023-04-23T03:05:03;1001.85;;;12.59;83.15
64230;BME280;50547;49.498;0.092;2023-04-23T03:07:32;1001.87;;;12.63;83.01
64230;BME280;50547;49.498;0.092;2023-04-23T03:10:01;1001.85;;;12.58;83.30
64230;BME280;50547;49.498;0.092;2023-04-23T03:12:30;1001.80;;;12.70;82.62
64230;BME280;50547;49.498;0.092;2023-04-23T03:14:59;1001.83;;;12.72;82.45
64230;BME280;50547;49.498;0.092;2023-04-23T03:17:28;1001.64;;;12.80;82.30
64230;BME280;50547;49.498;0.092;2023-04-23T03:19:57;1001.70;;;12.73;82.63
64230;BME280;50547;49.498;0.092;2023-04-23T03:22:26;1001.72;;;12.73;82.62
64230;BME280;50547;49.498;0.092;2023-04-23T03:24:55;1001.66;;;12.74;82.51
64230;BME280;50547;49.498;0.092;2023-04-23T03:27:24;1001.62;;;12.76;82.51
64230;BME280;50547;49.498;0.092;2023-04-23T03:29:53;1001.60;;;12.84;82.08
64230;BME280;50547;49.498;0.092;2023-04-23T03:32:22;1001.56;;;12.82;82.23
64230;BME280;50547;49.498;0.092;2023-04-23T03:34:51;1001.54;;;12.88;81.88
64230;BME280;50547;49.498;0.092;2023-04-23T03:37:20;1001.50;;;13.00;81.47
64230;BME280;50547;49.498;0.092;2023-04-23T03:39:49;1001.41;;;12.93;81.84
64230;BME280;50547;49.498;0.092;2023-04-23T03:42:18;1001.39;;;12.79;82.53
64230;BME280;50547;49.498;0.092;2023-04-23T03:44:47;1001.35;;;12.76;82.69
64230;BME280;50547;49.498;0.092;2023-04-23T03:47:16;1001.21;;;12.91;81.78
64230;BME280;50547;49.498;0.092;2023-04-23T03:49:45;1001.17;;;12.96;81.39
64230;BME280;50547;49.498;0.092;2023-04-23T03:52:14;1001.21;;;12.94;81.69
64230;BME280;50547;49.498;0.092;2023-04-23T03:54:43;1001.19;;;13.03;81.16
64230;BME280;50547;49.498;0.092;2023-04-23T03:57:12;1001.13;;;13.04;81.29
64230;BME280;50547;49.498;0.092;2023-04-23T03:59:41;1001.15;;;12.96;81.65
64230;BME280;50547;49.498;0.092;2023-04-23T04:02:10;1001.13;;;13.00;81.40
64230;BME280;50547;49.498;0.092;2023-04-23T04:04:39;1001.05;;;12.93;81.76
64230;BME280;50547;49.498;0.092;2023-04-23T04:07:08;1001.07;;;12.95;81.70
64230;BME280;50547;49.498;0.092;2023-04-23T04:09:38;1000.97;;;12.92;81.99
64230;BME280;50547;49.498;0.092;2023-04-23T04:12:07;1000.99;;;12.98;81.58
64230;BME280;50547;49.498;0.092;2023-04-23T04:14:36;1000.92;;;13.11;80.97
64230;BME280;50547;49.498;0.092;2023-04-23T04:17:05;1000.93;;;13.07;81.43
64230;BME280;50547;49.498;0.092;2023-04-23T04:19:34;1000.88;;;13.10;81.19
64230;BME280;50547;49.498;0.092;2023-04-23T04:22:03;1000.90;;;13.21;80.75
64230;BME280;50547;49.498;0.092;2023-04-23T04:24:32;1000.93;;;13.34;80.10
64230;BME280;50547;49.498;0.092;2023-04-23T04:27:02;1000.86;;;13.32;80.18
64230;BME280;50547;49.498;0.092;2023-04-23T04:29:31;1000.86;;;13.22;81.07
64230;BME280;50547;49.498;0.092;2023-04-23T04:32:00;1000.84;;;13.28;80.67
64230;BME280;50547;49.498;0.092;2023-04-23T04:34:28;1000.82;;;13.32;80.45
64230;BME280;50547;49.498;0.092;2023-04-23T04:36:57;1000.78;;;13.36;80.25
64230;BME280;50547;49.498;0.092;2023-04-23T04:39:26;1000.76;;;13.33;80.32
64230;BME280;50547;49.498;0.092;2023-04-23T04:41:55;1000.80;;;13.32;80.24
64230;BME280;50547;49.498;0.092;2023-04-23T04:44:25;1000.74;;;13.52;79.25
64230;BME280;50547;49.498;0.092;2023-04-23T04:46:54;1000.74;;;13.36;79.92
64230;BME280;50547;49.498;0.092;2023-04-23T04:49:23;1000.74;;;13.34;80.27
64230;BME280;50547;49.498;0.092;2023-04-23T04:51:51;1000.80;;;13.15;81.22
64230;BME280;50547;49.498;0.092;2023-04-23T04:54:21;1000.78;;;13.22;80.97
64230;BME280;50547;49.498;0.092;2023-04-23T04:56:50;1000.74;;;13.28;80.79
64230;BME280;50547;49.498;0.092;2023-04-23T04:59:19;1000.80;;;13.20;81.90
64230;BME280;50547;49.498;0.092;2023-04-23T05:01:48;1000.80;;;13.17;82.01
64230;BME280;50547;49.498;0.092;2023-04-23T05:04:17;1000.82;;;13.24;82.01
64230;BME280;50547;49.498;0.092;2023-04-23T05:06:46;1000.78;;;12.99;83.50
64230;BME280;50547;49.498;0.092;2023-04-23T05:09:15;1000.70;;;12.89;84.33
64230;BME280;50547;49.498;0.092;2023-04-23T05:11:44;1000.76;;;12.89;84.43
64230;BME280;50547;49.498;0.092;2023-04-23T05:14:13;1000.70;;;12.69;85.78
64230;BME280;50547;49.498;0.092;2023-04-23T05:16:42;1000.80;;;12.65;85.89
64230;BME280;50547;49.498;0.092;2023-04-23T05:19:11;1000.86;;;12.63;86.14
64230;BME280;50547;49.498;0.092;2023-04-23T05:21:40;1000.74;;;12.72;85.59
64230;BME280;50547;49.498;0.092;2023-04-23T05:24:09;1000.80;;;12.58;86.63
64230;BME280;50547;49.498;0.092;2023-04-23T05:26:38;1000.68;;;12.70;86.03
64230;BME280;50547;49.498;0.092;2023-04-23T05:29:07;1000.70;;;12.82;85.31
64230;BME280;50547;49.498;0.092;2023-04-23T05:31:36;1000.70;;;12.67;86.29
64230;BME280;50547;49.498;0.092;2023-04-23T05:34:05;1000.60;;;12.62;86.76
64230;BME280;50547;49.498;0.092;2023-04-23T05:36:34;1000.70;;;12.69;86.42
64230;BME280;50547;49.498;0.092;2023-04-23T05:39:03;1000.70;;;12.82;85.76
64230;BME280;50547;49.498;0.092;2023-04-23T05:41:33;1000.66;;;12.95;85.28
64230;BME280;50547;49.498;0.092;2023-04-23T05:44:02;1000.56;;;12.91;85.53
64230;BME280;50547;49.498;0.092;2023-04-23T05:46:31;1000.62;;;12.86;85.84
64230;BME280;50547;49.498;0.092;2023-04-23T05:49:00;1000.56;;;12.81;85.88
64230;BME280;50547;49.498;0.092;2023-04-23T05:51:29;1000.54;;;12.82;85.88
64230;BME280;50547;49.498;0.092;2023-04-23T05:53:58;1000.54;;;12.99;85.15
64230;BME280;50547;49.498;0.092;2023-04-23T05:56:27;1000.48;;;12.97;85.21
64230;BME280;50547;49.498;0.092;2023-04-23T05:58:56;1000.44;;;13.01;85.13
64230;BME280;50547;49.498;0.092;2023-04-23T06:01:25;1000.42;;;13.05;85.04
64230;BME280;50547;49.498;0.092;2023-04-23T06:03:54;1000.41;;;13.07;85.09
64230;BME280;50547;49.498;0.092;2023-04-23T06:06:23;1000.39;;;12.98;85.60
64230;BME280;50547;49.498;0.092;2023-04-23T06:08:53;1000.42;;;13.09;85.11
64230;BME280;50547;49.498;0.092;2023-04-23T06:11:22;1000.35;;;13.07;85.11
64230;BME280;50547;49.498;0.092;2023-04-23T06:13:51;1000.46;;;12.98;85.65
64230;BME280;50547;49.498;0.092;2023-04-23T06:16:20;1000.35;;;12.89;86.09
64230;BME280;50547;49.498;0.092;2023-04-23T06:18:49;1000.39;;;12.90;86.06
64230;BME280;50547;49.498;0.092;2023-04-23T06:21:18;1000.37;;;12.63;87.34
64230;BME280;50547;49.498;0.092;2023-04-23T06:23:47;1000.22;;;12.61;87.39
64230;BME280;50547;49.498;0.092;2023-04-23T06:26:16;1000.26;;;12.62;86.98
64230;BME280;50547;49.498;0.092;2023-04-23T06:28:45;1000.24;;;12.56;87.30
64230;BME280;50547;49.498;0.092;2023-04-23T06:31:14;1000.24;;;12.45;87.70
64230;BME280;50547;49.498;0.092;2023-04-23T06:33:44;1000.18;;;12.34;87.64
64230;BME280;50547;49.498;0.092;2023-04-23T06:36:13;1000.14;;;12.35;87.30
64230;BME280;50547;49.498;0.092;2023-04-23T06:38:42;1000.07;;;12.31;87.36
64230;BME280;50547;49.498;0.092;2023-04-23T06:41:10;1000.09;;;12.32;87.36
64230;BME280;50547;49.498;0.092;2023-04-23T06:43:40;999.95;;;12.29;87.58
64230;BME280;50547;49.498;0.092;2023-04-23T06:46:09;999.91;;;12.24;87.65
64230;BME280;50547;49.498;0.092;2023-04-23T06:48:39;999.91;;;12.37;86.91
64230;BME280;50547;49.498;0.092;2023-04-23T06:51:08;999.81;;;12.28;87.28
64230;BME280;50547;49.498;0.092;2023-04-23T06:53:37;999.69;;;12.19;87.42
64230;BME280;50547;49.498;0.092;2023-04-23T06:56:07;999.77;;;12.06;87.76
64230;BME280;50547;49.498;0.092;2023-04-23T06:58:36;999.67;;;12.07;87.46
64230;BME280;50547;49.498;0.092;2023-04-23T07:01:05;999.67;;;12.24;86.59
64230;BME280;50547;49.498;0.092;2023-04-23T07:03:34;999.65;;;12.34;86.22
64230;BME280;50547;49.498;0.092;2023-04-23T07:06:04;999.52;;;12.30;86.49
64230;BME280;50547;49.498;0.092;2023-04-23T07:08:33;999.52;;;12.35;86.24
64230;BME280;50547;49.498;0.092;2023-04-23T07:11:02;999.48;;;12.32;86.19
64230;BME280;50547;49.498;0.092;2023-04-23T07:13:31;999.40;;;12.51;85.40
64230;BME280;50547;49.498;0.092;2023-04-23T07:16:00;999.46;;;12.62;85.18
64230;BME280;50547;49.498;0.092;2023-04-23T07:18:30;999.34;;;12.67;85.28
64230;BME280;50547;49.498;0.092;2023-04-23T07:20:59;999.28;;;12.69;85.21
64230;BME280;50547;49.498;0.092;2023-04-23T07:23:28;999.26;;;12.76;85.24
64230;BME280;50547;49.498;0.092;2023-04-23T07:25:57;999.23;;;12.95;84.54
64230;BME280;50547;49.498;0.092;2023-04-23T07:28:26;999.11;;;13.00;84.59
64230;BME280;50547;49.498;0.092;2023-04-23T07:30:55;999.07;;;12.96;84.84
64230;BME280;50547;49.498;0.092;2023-04-23T07:33:24;998.99;;;13.08;84.59
64230;BME280;50547;49.498;0.092;2023-04-23T07:35:53;998.91;;;13.16;84.27
64230;BME280;50547;49.498;0.092;2023-04-23T07:38:23;998.89;;;13.34;83.91
64230;BME280;50547;49.498;0.092;2023-04-23T07:40:52;998.95;;;13.22;84.44
64230;BME280;50547;49.498;0.092;2023-04-23T07:43:21;998.93;;;13.29;84.32
64230;BME280;50547;49.498;0.092;2023-04-23T07:45:50;998.89;;;13.13;84.95
64230;BME280;50547;49.498;0.092;2023-04-23T07:48:19;998.83;;;12.98;85.47
64230;BME280;50547;49.498;0.092;2023-04-23T07:50:48;998.81;;;13.00;85.34
64230;BME280;50547;49.498;0.092;2023-04-23T07:53:17;998.83;;;13.05;84.86
64230;BME280;50547;49.498;0.092;2023-04-23T07:55:46;998.72;;;12.93;85.48
64230;BME280;50547;49.498;0.092;2023-04-23T07:58:15;998.72;;;13.05;85.02
64230;BME280;50547;49.498;0.092;2023-04-23T08:00:45;998.66;;;13.26;84.06
64230;BME280;50547;49.498;0.092;2023-04-23T08:03:14;998.56;;;13.40;83.59
64230;BME280;50547;49.498;0.092;2023-04-23T08:06:10;998.36;;;13.39;83.83
64230;BME280;50547;49.498;0.092;2023-04-23T08:08:40;998.32;;;13.46;83.70
64230;BME280;50547;49.498;0.092;2023-04-23T08:11:09;998.29;;;13.49;83.62
64230;BME280;50547;49.498;0.092;2023-04-23T08:13:38;998.25;;;13.42;83.74
64230;BME280;50547;49.498;0.092;2023-04-23T08:16:08;998.23;;;13.44;83.87
64230;BME280;50547;49.498;0.092;2023-04-23T08:18:37;998.11;;;13.49;83.65
64230;BME280;50547;49.498;0.092;2023-04-23T08:21:06;998.17;;;13.37;84.43
64230;BME280;50547;49.498;0.092;2023-04-23T08:23:36;998.25;;;13.32;84.31
64230;BME280;50547;49.498;0.092;2023-04-23T08:26:05;998.21;;;13.26;84.69
64230;BME280;50547;49.498;0.092;2023-04-23T08:28:34;998.15;;;13.29;84.54
64230;BME280;50547;49.498;0.092;2023-04-23T08:31:03;998.11;;;13.40;84.12
64230;BME280;50547;49.498;0.092;2023-04-23T08:33:33;997.99;;;13.37;84.34
64230;BME280;50547;49.498;0.092;2023-04-23T08:36:03;997.97;;;13.38;84.40
64230;BME280;50547;49.498;0.092;2023-04-23T08:38:32;997.83;;;13.23;85.41
64230;BME280;50547;49.498;0.092;2023-04-23T08:41:05;997.83;;;13.16;85.75
64230;BME280;50547;49.498;0.092;2023-04-23T08:43:43;997.69;;;13.18;85.73
64230;BME280;50547;49.498;0.092;2023-04-23T08:46:14;997.78;;;13.08;86.18
64230;BME280;50547;49.498;0.092;2023-04-23T08:48:44;997.67;;;13.06;86.10
64230;BME280;50547;49.498;0.092;2023-04-23T08:51:17;997.63;;;12.94;86.68
64230;BME280;50547;49.498;0.092;2023-04-23T08:53:50;997.51;;;12.87;87.05
64230;BME280;50547;49.498;0.092;2023-04-23T08:56:20;997.55;;;12.71;87.81
64230;BME280;50547;49.498;0.092;2023-04-23T08:58:49;997.47;;;12.69;87.73
64230;BME280;50547;49.498;0.092;2023-04-23T09:01:19;997.49;;;12.75;87.35
64230;BME280;50547;49.498;0.092;2023-04-23T09:03:48;997.32;;;12.71;87.63
64230;BME280;50547;49.498;0.092;2023-04-23T09:06:18;997.28;;;12.72;87.58
64230;BME280;50547;49.498;0.092;2023-04-23T09:08:59;997.26;;;12.67;88.02
64230;BME280;50547;49.498;0.092;2023-04-23T09:11:29;997.18;;;12.66;87.97
64230;BME280;50547;49.498;0.092;2023-04-23T09:13:58;997.28;;;12.63;88.28
64230;BME280;50547;49.498;0.092;2023-04-23T09:16:27;997.18;;;12.58;88.47
64230;BME280;50547;49.498;0.092;2023-04-23T09:18:57;997.28;;;12.54;88.61
64230;BME280;50547;49.498;0.092;2023-04-23T09:21:35;997.20;;;12.57;88.54
64230;BME280;50547;49.498;0.092;2023-04-23T09:24:04;997.14;;;12.69;88.02
64230;BME280;50547;49.498;0.092;2023-04-23T09:26:33;997.14;;;12.64;88.34
64230;BME280;50547;49.498;0.092;2023-04-23T09:29:02;997.08;;;12.64;88.34
64230;BME280;50547;49.498;0.092;2023-04-23T09:31:32;997.08;;;12.75;87.94
64230;BME280;50547;49.498;0.092;2023-04-23T09:34:01;997.06;;;12.83;87.95
64230;BME280;50547;49.498;0.092;2023-04-23T09:36:30;997.00;;;12.80;88.20
64230;BME280;50547;49.498;0.092;2023-04-23T09:38:59;997.00;;;12.86;88.05
64230;BME280;50547;49.498;0.092;2023-04-23T09:41:29;996.93;;;12.92;87.87
64230;BME280;50547;49.498;0.092;2023-04-23T09:43:58;996.95;;;12.83;88.12
64230;BME280;50547;49.498;0.092;2023-04-23T09:46:36;996.87;;;12.64;88.89
64230;BME280;50547;49.498;0.092;2023-04-23T09:49:06;996.85;;;12.65;88.48
64230;BME280;50547;49.498;0.092;2023-04-23T09:51:36;996.79;;;12.68;88.08
64230;BME280;50547;49.498;0.092;2023-04-23T09:54:11;996.79;;;12.58;88.94
64230;BME280;50547;49.498;0.092;2023-04-23T09:56:41;996.61;;;12.46;89.50
64230;BME280;50547;49.498;0.092;2023-04-23T09:59:27;996.65;;;12.44;89.59
64230;BME280;50547;49.498;0.092;2023-04-23T10:02:00;996.69;;;12.49;89.18
64230;BME280;50547;49.498;0.092;2023-04-23T10:04:30;996.73;;;12.59;88.81
64230;BME280;50547;49.498;0.092;2023-04-23T10:06:58;996.73;;;12.56;88.61
64230;BME280;50547;49.498;0.092;2023-04-23T10:09:26;996.75;;;12.70;88.03
64230;BME280;50547;49.498;0.092;2023-04-23T10:11:57;996.73;;;12.83;87.66
64230;BME280;50547;49.498;0.092;2023-04-23T10:14:27;996.81;;;12.95;87.39
64230;BME280;50547;49.498;0.092;2023-04-23T10:16:57;996.81;;;12.64;88.85
64230;BME280;50547;49.498;0.092;2023-04-23T10:19:28;996.79;;;12.98;87.32
64230;BME280;50547;49.498;0.092;2023-04-23T10:21:58;996.81;;;13.20;86.68
64230;BME280;50547;49.498;0.092;2023-04-23T10:24:34;996.83;;;13.19;87.07
64230;BME280;50547;49.498;0.092;2023-04-23T10:27:10;996.79;;;13.00;87.14
64230;BME280;50547;49.498;0.092;2023-04-23T10:29:41;996.83;;;12.96;87.12
64230;BME280;50547;49.498;0.092;2023-04-23T10:32:10;996.81;;;12.77;87.99
64230;BME280;50547;49.498;0.092;2023-04-23T10:34:41;996.81;;;12.73;86.77
64230;BME280;50547;49.498;0.092;2023-04-23T10:37:10;996.81;;;12.79;86.97
64230;BME280;50547;49.498;0.092;2023-04-23T10:39:42;996.89;;;13.16;86.02
64230;BME280;50547;49.498;0.092;2023-04-23T10:42:12;996.93;;;12.93;86.65
64230;BME280;50547;49.498;0.092;2023-04-23T10:44:42;997.00;;;11.33;92.34
64230;BME280;50547;49.498;0.092;2023-04-23T10:47:13;996.95;;;10.96;93.10
64230;BME280;50547;49.498;0.092;2023-04-23T10:49:43;997.10;;;10.59;92.60
64230;BME280;50547;49.498;0.092;2023-04-23T10:52:14;997.18;;;10.44;92.69
64230;BME280;50547;49.498;0.092;2023-04-23T10:54:48;997.18;;;10.62;90.78
64230;BME280;50547;49.498;0.092;2023-04-23T10:57:17;997.12;;;10.50;91.15
64230;BME280;50547;49.498;0.092;2023-04-23T10:59:52;997.24;;;10.29;91.53
64230;BME280;50547;49.498;0.092;2023-04-23T11:02:22;997.18;;;10.15;91.92
64230;BME280;50547;49.498;0.092;2023-04-23T11:04:54;997.26;;;10.21;91.38
64230;BME280;50547;49.498;0.092;2023-04-23T11:07:25;997.24;;;10.17;91.38
64230;BME280;50547;49.498;0.092;2023-04-23T11:09:58;997.34;;;10.08;91.62
64230;BME280;50547;49.498;0.092;2023-04-23T11:12:32;997.32;;;10.19;91.18
64230;BME280;50547;49.498;0.092;2023-04-23T11:15:18;997.36;;;10.22;91.11
64230;BME280;50547;49.498;0.092;2023-04-23T11:18:09;997.40;;;10.05;91.48
64230;BME280;50547;49.498;0.092;2023-04-23T11:20:39;997.49;;;10.38;90.44
64230;BME280;50547;49.498;0.092;2023-04-23T11:23:28;997.46;;;10.41;90.57
64230;BME280;50547;49.498;0.092;2023-04-23T11:25:58;997.49;;;10.58;90.28
64230;BME280;50547;49.498;0.092;2023-04-23T11:28:30;997.53;;;10.56;90.90
64230;BME280;50547;49.498;0.092;2023-04-23T11:31:02;997.57;;;10.59;90.82
64230;BME280;50547;49.498;0.092;2023-04-23T11:33:32;997.47;;;10.59;90.88
64230;BME280;50547;49.498;0.092;2023-04-23T11:36:02;997.59;;;10.54;91.05
64230;BME280;50547;49.498;0.092;2023-04-23T11:38:30;997.61;;;10.35;91.59
64230;BME280;50547;49.498;0.092;2023-04-23T11:41:01;997.69;;;10.58;90.75
64230;BME280;50547;49.498;0.092;2023-04-23T11:43:30;997.81;;;10.86;90.00
64230;BME280;50547;49.498;0.092;2023-04-23T11:45:59;997.99;;;10.83;90.42
64230;BME280;50547;49.498;0.092;2023-04-23T11:48:29;997.99;;;10.58;91.45
64230;BME280;50547;49.498;0.092;2023-04-23T11:50:58;997.95;;;10.58;91.50
64230;BME280;50547;49.498;0.092;2023-04-23T11:53:27;998.07;;;10.57;91.58
64230;BME280;50547;49.498;0.092;2023-04-23T11:55:56;998.15;;;10.72;91.17
64230;BME280;50547;49.498;0.092;2023-04-23T11:58:25;998.19;;;10.70;91.31
64230;BME280;50547;49.498;0.092;2023-04-23T12:00:56;998.21;;;10.69;91.45
64230;BME280;50547;49.498;0.092;2023-04-23T12:03:25;998.29;;;10.65;91.84
64230;BME280;50547;49.498;0.092;2023-04-23T12:05:54;998.42;;;10.67;91.75
64230;BME280;50547;49.498;0.092;2023-04-23T12:08:24;998.31;;;10.73;91.57
64230;BME280;50547;49.498;0.092;2023-04-23T12:11:00;998.44;;;10.96;90.65
64230;BME280;50547;49.498;0.092;2023-04-23T12:13:30;998.42;;;10.97;90.81
64230;BME280;50547;49.498;0.092;2023-04-23T12:16:01;998.42;;;10.93;90.87
64230;BME280;50547;49.498;0.092;2023-04-23T12:18:34;998.54;;;10.89;91.03
64230;BME280;50547;49.498;0.092;2023-04-23T12:21:10;998.48;;;10.99;90.60
64230;BME280;50547;49.498;0.092;2023-04-23T12:23:41;998.54;;;11.06;90.10
64230;BME280;50547;49.498;0.092;2023-04-23T12:26:14;998.58;;;11.28;89.37
64230;BME280;50547;49.498;0.092;2023-04-23T12:28:50;998.60;;;11.28;89.52
64230;BME280;50547;49.498;0.092;2023-04-23T12:31:23;998.66;;;11.35;89.46
64230;BME280;50547;49.498;0.092;2023-04-23T12:34:01;998.56;;;11.41;89.11
64230;BME280;50547;49.498;0.092;2023-04-23T12:36:33;998.68;;;11.33;89.41
64230;BME280;50547;49.498;0.092;2023-04-23T12:39:22;998.70;;;11.49;88.81
64230;BME280;50547;49.498;0.092;2023-04-23T12:41:55;998.66;;;11.63;88.36
64230;BME280;50547;49.498;0.092;2023-04-23T12:44:24;998.70;;;11.60;88.38
64230;BME280;50547;49.498;0.092;2023-04-23T12:46:56;998.68;;;11.77;87.93
64230;BME280;50547;49.498;0.092;2023-04-23T12:49:26;998.75;;;11.90;87.60
64230;BME280;50547;49.498;0.092;2023-04-23T12:51:58;998.70;;;11.83;87.75
64230;BME280;50547;49.498;0.092;2023-04-23T12:54:31;998.70;;;11.81;88.17
64230;BME280;50547;49.498;0.092;2023-04-23T12:57:01;998.77;;;11.95;87.99
64230;BME280;50547;49.498;0.092;2023-04-23T12:59:31;998.74;;;11.88;88.10
64230;BME280;50547;49.498;0.092;2023-04-23T13:02:00;998.77;;;11.96;87.88
64230;BME280;50547;49.498;0.092;2023-04-23T13:04:30;998.77;;;11.98;87.92
64230;BME280;50547;49.498;0.092;2023-04-23T13:07:01;998.83;;;11.79;88.60
64230;BME280;50547;49.498;0.092;2023-04-23T13:09:30;998.85;;;12.19;86.99
64230;BME280;50547;49.498;0.092;2023-04-23T13:12:00;998.85;;;12.04;87.84
64230;BME280;50547;49.498;0.092;2023-04-23T13:14:29;998.93;;;12.42;86.53
64230;BME280;50547;49.498;0.092;2023-04-23T13:16:58;998.89;;;12.68;85.63
64230;BME280;50547;49.498;0.092;2023-04-23T13:19:27;998.87;;;12.58;86.48
64230;BME280;50547;49.498;0.092;2023-04-23T13:21:56;998.89;;;12.59;86.62
64230;BME280;50547;49.498;0.092;2023-04-23T13:24:25;998.89;;;12.51;87.06
64230;BME280;50547;49.498;0.092;2023-04-23T13:26:54;998.91;;;12.47;87.12
64230;BME280;50547;49.498;0.092;2023-04-23T13:29:24;998.93;;;12.71;86.11
64230;BME280;50547;49.498;0.092;2023-04-23T13:31:53;999.01;;;12.65;86.79